Time;durP1;ratioP1;P1;durP2;ratioP2;P2;SDS_P1;SDS_P2;PMS_P1;PMS_P2;Temp;Humidity;BMP_temperature;BMP_pressure;BME280_temperature;BME280_humidity;BME280_pressure;Samples;Min_cycle;Max_cycle;Signal;HPM_P1;HPM_P2
2023/08/25 00:01:58;;;;;;;5.75;3.17;;;22.00;99.90;;;;;;5005777;28;20089;-78
2023/08/25 00:04:25;;;;;;;7.57;3.50;;;22.10;99.90;;;;;;5003248;28;20407;-78
2023/08/25 00:06:51;;;;;;;7.18;3.80;;;22.30;99.90;;;;;;5002391;28;20053;-77
2023/08/25 00:09:18;;;;;;;14.90;3.95;;;22.30;99.90;;;;;;5004795;28;20069;-77
2023/08/25 00:11:45;;;;;;;8.60;4.10;;;22.30;99.90;;;;;;5018147;28;20046;-78
2023/08/25 00:14:12;;;;;;;6.70;4.18;;;22.40;99.90;;;;;;5003425;28;20047;-78
2023/08/25 00:16:39;;;;;;;8.18;4.10;;;22.40;99.90;;;;;;5005013;28;20119;-78
2023/08/25 00:19:05;;;;;;;5.68;3.72;;;22.40;99.90;;;;;;5003272;28;20096;-78
2023/08/25 00:21:32;;;;;;;6.13;3.58;;;22.50;99.90;;;;;;5001180;28;20073;-78
2023/08/25 00:23:59;;;;;;;9.43;3.83;;;22.30;99.90;;;;;;5009355;28;20084;-78
2023/08/25 00:26:25;;;;;;;4.10;3.58;;;22.40;99.90;;;;;;5019220;28;20108;-78
2023/08/25 00:28:52;;;;;;;7.13;4.40;;;22.40;99.90;;;;;;5001627;28;20561;-77
2023/08/25 00:31:19;;;;;;;6.72;4.22;;;22.50;99.90;;;;;;5004622;28;20096;-78
2023/08/25 00:33:50;;;;;;;8.82;4.45;;;22.60;99.90;;;;;;5004690;28;20049;-77
2023/08/25 00:36:17;;;;;;;12.48;3.75;;;22.50;99.90;;;;;;5004763;28;20050;-78
2023/08/25 00:38:44;;;;;;;7.43;4.55;;;22.60;99.90;;;;;;5004386;28;20050;-78
2023/08/25 00:41:11;;;;;;;8.38;3.83;;;22.50;99.90;;;;;;5002719;28;20391;-77
2023/08/25 00:43:39;;;;;;;5.35;3.42;;;22.60;99.90;;;;;;5004246;28;20100;-78
2023/08/25 00:46:06;;;;;;;6.47;3.75;;;22.50;99.90;;;;;;5003973;28;20078;-78
2023/08/25 00:48:33;;;;;;;4.78;3.22;;;22.60;99.90;;;;;;5005421;28;20053;-78
2023/08/25 00:51:00;;;;;;;9.00;3.50;;;22.60;99.90;;;;;;5004872;28;20042;-78
2023/08/25 00:53:27;;;;;;;5.35;3.60;;;22.50;99.90;;;;;;5002471;28;20129;-78
2023/08/25 00:55:54;;;;;;;7.50;3.63;;;22.40;99.90;;;;;;5004651;28;20104;-78
2023/08/25 00:58:21;;;;;;;12.05;3.50;;;22.40;99.90;;;;;;5005730;28;20050;-78
2023/08/25 01:00:48;;;;;;;6.15;3.33;;;22.30;99.90;;;;;;5005788;28;20053;-78
2023/08/25 01:03:16;;;;;;;7.55;3.55;;;22.40;99.90;;;;;;5004199;28;20085;-78
2023/08/25 01:05:43;;;;;;;4.82;3.22;;;22.30;99.90;;;;;;5002655;28;20050;-78
2023/08/25 01:08:09;;;;;;;7.72;3.20;;;22.20;99.90;;;;;;5003772;28;20075;-78
2023/08/25 01:10:54;;;;;;;6.28;3.58;;;22.20;99.90;;;;;;5005047;28;20100;-78
2023/08/25 01:14:23;;;;;;;7.03;4.10;;;22.20;99.90;;;;;;5008759;28;20046;-78
2023/08/25 01:17:07;;;;;;;5.88;3.90;;;22.00;99.90;;;;;;4949487;28;20113;-78
2023/08/25 01:19:55;;;;;;;6.00;4.20;;;22.00;99.90;;;;;;5009193;28;20104;-78
2023/08/25 01:22:34;;;;;;;6.95;3.20;;;22.10;99.90;;;;;;5008926;28;20109;-79
2023/08/25 01:25:27;;;;;;;8.27;3.80;;;21.80;99.90;;;;;;5008715;28;20136;-78
2023/08/25 01:28:03;;;;;;;6.88;3.55;;;21.90;99.90;;;;;;5007382;28;20050;-78
2023/08/25 01:30:31;;;;;;;7.45;4.35;;;22.00;99.90;;;;;;5006374;28;20069;-78
2023/08/25 01:32:58;;;;;;;7.03;3.90;;;22.00;99.90;;;;;;5006580;28;20081;-78
2023/08/25 01:35:34;;;;;;;5.32;3.60;;;22.00;99.90;;;;;;5007473;28;20093;-78
2023/08/25 01:38:20;;;;;;;5.03;3.63;;;22.00;99.90;;;;;;5008436;28;20100;-78
2023/08/25 01:41:14;;;;;;;5.80;3.30;;;22.10;99.90;;;;;;5008387;28;20050;-78
2023/08/25 01:43:46;;;;;;;8.90;3.83;;;22.30;99.90;;;;;;5005630;28;20050;-78
2023/08/25 01:46:15;;;;;;;5.65;3.08;;;22.30;99.90;;;;;;5007942;28;20505;-78
2023/08/25 01:48:45;;;;;;;3.45;3.08;;;22.10;99.90;;;;;;5005684;28;20082;-78
2023/08/25 01:51:13;;;;;;;4.25;3.00;;;22.20;99.90;;;;;;5005394;28;20053;-78
2023/08/25 01:53:47;;;;;;;8.15;3.83;;;22.20;99.90;;;;;;5006701;28;20073;-78
2023/08/25 01:56:14;;;;;;;7.80;3.72;;;22.30;99.90;;;;;;5007706;28;20084;-78
2023/08/25 01:58:41;;;;;;;6.32;4.22;;;22.40;99.90;;;;;;5006670;28;20057;-78
2023/08/25 02:01:07;;;;;;;8.85;3.28;;;22.40;99.90;;;;;;5005632;28;20050;-78
2023/08/25 02:03:34;;;;;;;6.88;3.35;;;22.50;99.90;;;;;;5009072;28;20117;-78
2023/08/25 02:06:01;;;;;;;5.55;3.92;;;22.50;99.90;;;;;;5009382;28;20469;-77
2023/08/25 02:08:28;;;;;;;6.97;3.55;;;22.50;99.90;;;;;;5005592;28;20078;-78
2023/08/25 02:10:54;;;;;;;6.30;4.05;;;22.60;99.90;;;;;;5006247;28;20049;-77
2023/08/25 02:13:21;;;;;;;14.38;3.97;;;22.60;99.90;;;;;;5006267;28;20481;-78
2023/08/25 02:15:49;;;;;;;11.88;3.90;;;22.50;99.90;;;;;;5007237;28;20460;-78
2023/08/25 02:18:15;;;;;;;7.60;3.30;;;22.50;99.90;;;;;;5006752;28;20081;-78
2023/08/25 02:20:42;;;;;;;7.22;3.70;;;22.50;99.90;;;;;;5003485;28;20054;-78
2023/08/25 02:23:09;;;;;;;7.68;4.07;;;22.50;99.90;;;;;;5005649;28;20046;-77
2023/08/25 02:25:36;;;;;;;11.15;4.70;;;22.50;99.90;;;;;;5005356;28;20057;-77
2023/08/25 02:28:03;;;;;;;9.10;3.70;;;22.40;99.90;;;;;;5004698;28;20051;-78
2023/08/25 02:30:30;;;;;;;10.13;3.88;;;22.50;99.90;;;;;;5005656;28;20046;-78
2023/08/25 02:32:57;;;;;;;7.50;3.20;;;22.50;99.90;;;;;;5005759;28;20131;-78
2023/08/25 02:35:24;;;;;;;5.63;3.55;;;22.50;99.90;;;;;;5005204;28;20072;-78
2023/08/25 02:38:00;;;;;;;11.07;4.80;;;22.50;99.90;;;;;;5003884;28;20395;-78
2023/08/25 02:40:28;;;;;;;8.63;4.03;;;22.40;99.90;;;;;;5004195;28;20117;-78
2023/08/25 02:42:55;;;;;;;11.63;4.85;;;22.30;99.90;;;;;;5004293;28;20425;-78
2023/08/25 02:45:25;;;;;;;9.80;3.80;;;22.30;99.90;;;;;;5006429;28;20057;-78
2023/08/25 02:47:53;;;;;;;9.95;4.05;;;22.10;99.90;;;;;;5006233;28;20425;-78
2023/08/25 02:50:22;;;;;;;6.72;3.90;;;22.20;99.90;;;;;;5006859;28;20046;-78
2023/08/25 02:52:49;;;;;;;8.30;3.90;;;22.10;99.90;;;;;;5005645;28;20472;-78
2023/08/25 02:55:19;;;;;;;11.15;4.00;;;22.20;99.90;;;;;;5004158;28;20057;-78
2023/08/25 02:57:47;;;;;;;7.68;4.35;;;22.10;99.90;;;;;;5005518;28;20061;-78
2023/08/25 03:00:23;;;;;;;8.10;4.25;;;22.10;99.90;;;;;;5006398;28;20535;-78
2023/08/25 03:02:51;;;;;;;5.95;3.97;;;22.20;99.90;;;;;;5006178;28;20060;-78
2023/08/25 03:05:18;;;;;;;13.43;4.25;;;22.20;99.90;;;;;;5002398;28;20050;-78
2023/08/25 03:07:45;;;;;;;6.30;4.15;;;22.20;99.90;;;;;;5005190;28;20425;-78
2023/08/25 03:10:12;;;;;;;5.80;4.10;;;22.10;99.90;;;;;;5006649;28;20049;-78
2023/08/25 03:12:39;;;;;;;9.00;3.88;;;22.10;99.90;;;;;;5006284;28;20061;-77
2023/08/25 03:15:07;;;;;;;6.70;3.60;;;22.10;99.90;;;;;;5005755;28;20049;-78
2023/08/25 03:17:34;;;;;;;5.65;3.75;;;22.10;99.90;;;;;;5003444;28;20149;-78
2023/08/25 03:20:02;;;;;;;8.57;3.67;;;22.10;99.90;;;;;;5004030;28;20157;-78
2023/08/25 03:22:30;;;;;;;8.68;4.00;;;22.10;99.90;;;;;;5005340;28;20050;-78
2023/08/25 03:24:56;;;;;;;5.13;3.47;;;22.10;99.90;;;;;;5003814;28;20050;-78
2023/08/25 03:27:23;;;;;;;6.32;4.20;;;22.10;99.90;;;;;;5003930;28;20050;-78
2023/08/25 03:29:50;;;;;;;7.55;3.70;;;22.10;99.90;;;;;;5005995;28;20045;-78
2023/08/25 03:32:17;;;;;;;6.60;3.60;;;22.00;99.90;;;;;;5004398;28;20050;-78
2023/08/25 03:34:43;;;;;;;8.13;3.67;;;22.10;99.90;;;;;;5003076;28;20043;-77
2023/08/25 03:37:11;;;;;;;6.15;3.38;;;22.00;99.90;;;;;;5005912;28;20437;-78
2023/08/25 03:39:38;;;;;;;6.63;3.67;;;22.10;99.90;;;;;;5005145;28;20104;-78
2023/08/25 03:42:05;;;;;;;5.55;3.40;;;22.00;99.90;;;;;;5002692;28;20067;-78
2023/08/25 03:44:32;;;;;;;5.32;3.42;;;22.00;99.90;;;;;;5005721;28;20398;-78
2023/08/25 03:46:59;;;;;;;14.63;4.70;;;22.00;99.90;;;;;;5006330;28;20096;-78
2023/08/25 03:49:28;;;;;;;5.18;3.38;;;22.00;99.90;;;;;;5003276;28;20054;-79
2023/08/25 03:51:56;;;;;;;8.68;3.60;;;21.90;99.90;;;;;;5004700;28;20082;-78
2023/08/25 03:54:23;;;;;;;6.68;3.47;;;21.80;99.90;;;;;;5005718;28;20501;-78
2023/08/25 03:56:50;;;;;;;12.25;3.80;;;21.80;99.90;;;;;;5004331;28;20524;-78
2023/08/25 03:59:16;;;;;;;11.13;3.40;;;21.90;99.90;;;;;;5004192;28;20093;-78
2023/08/25 04:01:43;;;;;;;9.18;3.50;;;21.90;99.90;;;;;;5005558;28;20049;-78
2023/08/25 04:04:10;;;;;;;10.45;3.75;;;21.80;99.90;;;;;;5004796;28;20046;-78
2023/08/25 04:06:37;;;;;;;8.07;3.78;;;21.80;99.90;;;;;;5003144;28;20054;-78
2023/08/25 04:09:03;;;;;;;10.20;4.35;;;21.80;99.90;;;;;;5005577;28;20107;-78
2023/08/25 04:11:30;;;;;;;8.07;3.55;;;21.70;99.90;;;;;;5005486;28;20092;-78
2023/08/25 04:13:57;;;;;;;9.45;3.85;;;21.50;99.90;;;;;;5001973;28;20046;-78
2023/08/25 04:16:24;;;;;;;8.65;4.30;;;21.60;99.90;;;;;;5004996;28;20062;-78
2023/08/25 04:18:52;;;;;;;7.05;3.95;;;21.50;99.90;;;;;;5004846;28;20054;-78
2023/08/25 04:21:18;;;;;;;8.30;4.65;;;21.60;99.90;;;;;;5004315;28;20105;-78
2023/08/25 04:23:45;;;;;;;8.60;4.50;;;21.60;99.90;;;;;;5004112;28;20061;-78
2023/08/25 04:26:12;;;;;;;7.47;3.60;;;21.60;99.90;;;;;;5005999;28;20437;-78
2023/08/25 04:28:38;;;;;;;9.07;4.10;;;21.50;99.90;;;;;;5004889;28;20050;-79
2023/08/25 04:31:05;;;;;;;12.32;5.35;;;21.50;99.90;;;;;;5003665;28;20058;-78
2023/08/25 04:33:32;;;;;;;10.80;3.90;;;21.50;99.90;;;;;;5005654;28;20493;-78
2023/08/25 04:35:59;;;;;;;8.82;4.60;;;21.50;99.90;;;;;;5004890;28;20085;-78
2023/08/25 04:38:25;;;;;;;6.53;4.93;;;21.30;99.90;;;;;;5003594;28;20054;-78
2023/08/25 04:40:52;;;;;;;10.57;4.88;;;21.20;99.90;;;;;;5005286;28;20069;-78
2023/08/25 04:43:19;;;;;;;8.43;4.35;;;21.30;99.90;;;;;;5004764;28;20081;-78
2023/08/25 04:45:46;;;;;;;9.48;4.45;;;21.30;99.90;;;;;;5003350;28;20685;-79
2023/08/25 04:48:13;;;;;;;9.73;4.93;;;21.30;99.90;;;;;;5008155;28;20058;-78
2023/08/25 04:50:40;;;;;;;9.07;4.70;;;21.20;99.90;;;;;;5009333;28;20050;-78
2023/08/25 04:55:41;;;;;;;7.75;4.55;;;21.10;99.90;;;;;;4977705;28;20067;-78
2023/08/25 04:58:08;;;;;;;6.50;3.90;;;21.00;99.90;;;;;;4980728;28;20058;-79
2023/08/25 05:00:35;;;;;;;8.35;4.00;;;21.20;99.90;;;;;;4980726;28;20051;-79
2023/08/25 05:03:02;;;;;;;6.97;4.00;;;21.20;99.90;;;;;;4981027;28;20462;-79
2023/08/25 05:05:28;;;;;;;6.80;4.65;;;21.10;99.90;;;;;;4979023;28;20051;-79
2023/08/25 05:07:55;;;;;;;8.85;4.65;;;21.10;99.90;;;;;;4979532;28;20105;-78
2023/08/25 05:10:22;;;;;;;8.80;4.22;;;21.20;99.90;;;;;;4977297;28;20047;-78
2023/08/25 05:12:48;;;;;;;7.43;4.90;;;21.20;99.90;;;;;;4979258;28;20043;-78
2023/08/25 05:15:15;;;;;;;7.07;4.80;;;21.20;99.90;;;;;;4980183;28;20129;-78
2023/08/25 05:17:42;;;;;;;8.82;5.55;;;21.30;99.90;;;;;;4980614;28;20058;-78
2023/08/25 05:20:10;;;;;;;8.07;5.32;;;21.40;99.90;;;;;;4980193;28;20548;-79
2023/08/25 05:22:36;;;;;;;8.15;5.28;;;21.30;99.90;;;;;;4980629;28;20059;-79
2023/08/25 05:25:03;;;;;;;8.30;5.07;;;21.40;99.90;;;;;;4980755;28;20054;-78
2023/08/25 05:27:30;;;;;;;8.60;4.70;;;21.40;99.90;;;;;;4980220;28;20071;-78
2023/08/25 05:29:57;;;;;;;9.45;5.03;;;21.50;99.90;;;;;;4980229;28;20054;-80
2023/08/25 05:32:24;;;;;;;9.15;5.10;;;21.60;99.90;;;;;;4980512;28;20059;-79
2023/08/25 05:34:50;;;;;;;9.95;4.65;;;21.70;99.90;;;;;;4980543;28;20093;-79
2023/08/25 05:37:17;;;;;;;10.85;5.20;;;21.60;99.90;;;;;;4980315;28;20061;-79
2023/08/25 05:39:44;;;;;;;6.65;4.88;;;21.50;99.90;;;;;;4981067;28;20047;-80
2023/08/25 05:42:11;;;;;;;7.82;4.40;;;21.50;99.90;;;;;;4977518;28;20185;-78
2023/08/25 05:44:37;;;;;;;9.35;4.50;;;21.60;99.90;;;;;;4963302;28;20577;-79
2023/08/25 05:47:04;;;;;;;7.18;4.60;;;21.60;99.90;;;;;;4980711;28;20541;-79
2023/08/25 05:49:31;;;;;;;6.15;4.15;;;21.50;99.90;;;;;;4980676;28;20058;-79
2023/08/25 05:51:57;;;;;;;11.15;3.80;;;21.60;99.90;;;;;;4980888;28;20057;-79
2023/08/25 05:54:24;;;;;;;5.60;3.47;;;21.70;99.90;;;;;;4980142;28;20101;-79
2023/08/25 05:56:53;;;;;;;6.80;3.80;;;21.60;99.90;;;;;;4980435;28;20050;-79
2023/08/25 05:59:20;;;;;;;5.95;3.50;;;21.40;99.90;;;;;;4980292;28;20454;-79
2023/08/25 06:01:46;;;;;;;7.53;3.83;;;21.40;99.90;;;;;;4980940;28;20682;-79
2023/08/25 06:04:13;;;;;;;5.97;3.47;;;21.40;99.90;;;;;;4980368;28;20055;-79
2023/08/25 06:06:41;;;;;;;8.60;4.38;;;21.50;99.90;;;;;;4979292;28;20130;-80
2023/08/25 06:09:08;;;;;;;8.32;4.00;;;21.40;99.90;;;;;;4980377;28;20047;-78
2023/08/25 06:11:36;;;;;;;6.72;3.22;;;21.50;99.90;;;;;;4979904;28;20562;-81
2023/08/25 06:14:02;;;;;;;9.73;4.30;;;21.60;99.90;;;;;;4980337;28;20472;-79
2023/08/25 06:16:29;;;;;;;11.75;4.22;;;21.80;99.90;;;;;;4980206;28;20046;-79
2023/08/25 06:18:56;;;;;;;8.93;4.00;;;21.70;99.90;;;;;;4980401;28;20070;-79
2023/08/25 06:21:23;;;;;;;5.03;3.45;;;21.80;99.90;;;;;;4980881;28;20070;-79
2023/08/25 06:23:49;;;;;;;6.70;4.00;;;21.60;99.90;;;;;;4980844;28;20054;-79
2023/08/25 06:26:17;;;;;;;6.55;4.07;;;21.60;99.90;;;;;;4980633;28;20059;-80
2023/08/25 06:28:44;;;;;;;5.50;3.75;;;21.70;99.90;;;;;;4979264;28;20051;-80
2023/08/25 06:31:11;;;;;;;7.15;4.45;;;21.80;99.90;;;;;;4980393;28;20043;-78
2023/08/25 06:33:38;;;;;;;7.13;4.35;;;21.80;99.90;;;;;;4982855;28;20085;-78
2023/08/25 06:36:05;;;;;;;5.47;3.50;;;21.90;99.90;;;;;;4980806;28;20078;-79
2023/08/25 06:38:32;;;;;;;10.65;4.78;;;21.90;99.90;;;;;;4978114;28;20058;-79
2023/08/25 06:41:11;;;;;;;5.83;4.10;;;22.00;99.90;;;;;;4979825;28;20141;-78
2023/08/25 06:43:38;;;;;;;9.38;4.68;;;22.10;99.90;;;;;;4979229;28;20062;-79
2023/08/25 06:46:05;;;;;;;7.40;4.20;;;21.90;99.90;;;;;;4979702;28;20050;-79
2023/08/25 06:48:31;;;;;;;11.40;4.15;;;21.90;99.90;;;;;;4980149;28;20061;-79
2023/08/25 06:50:58;;;;;;;9.50;4.28;;;21.80;99.90;;;;;;4980309;28;20188;-79
2023/08/25 06:53:25;;;;;;;5.90;4.13;;;21.60;99.90;;;;;;4979014;28;20046;-79
2023/08/25 06:55:52;;;;;;;12.18;5.68;;;21.40;99.90;;;;;;4978946;28;20090;-78
2023/08/25 06:58:18;;;;;;;12.27;4.97;;;21.30;99.90;;;;;;4978976;28;20105;-79
2023/08/25 07:00:45;;;;;;;7.65;4.68;;;21.30;99.90;;;;;;4978317;28;20051;-78
2023/08/25 07:03:12;;;;;;;8.70;5.68;;;21.30;99.90;;;;;;4975131;28;20050;-77
2023/08/25 07:05:40;;;;;;;6.03;4.38;;;21.30;99.90;;;;;;4972806;28;20054;-78
2023/08/25 07:08:07;;;;;;;10.95;4.55;;;21.30;99.90;;;;;;4970856;28;20430;-77
2023/08/25 07:10:35;;;;;;;9.85;5.43;;;21.20;99.90;;;;;;4973799;28;20083;-78
2023/08/25 07:13:01;;;;;;;6.80;4.68;;;21.40;99.90;;;;;;4973331;28;20054;-77
2023/08/25 07:15:28;;;;;;;6.93;4.30;;;21.50;99.90;;;;;;4974032;28;20047;-78
2023/08/25 07:17:55;;;;;;;8.20;4.72;;;21.60;99.90;;;;;;4974557;28;20102;-78
2023/08/25 07:20:22;;;;;;;10.20;5.22;;;21.70;99.90;;;;;;4971289;28;20042;-78
2023/08/25 07:22:50;;;;;;;10.95;5.25;;;21.70;99.90;;;;;;4978669;28;20105;-77
2023/08/25 07:25:17;;;;;;;10.63;5.95;;;21.80;99.90;;;;;;4977337;28;20058;-78
2023/08/25 07:27:43;;;;;;;12.98;6.10;;;21.80;99.90;;;;;;4977707;28;20118;-77
2023/08/25 07:30:10;;;;;;;9.98;5.30;;;21.70;99.90;;;;;;4976260;28;20051;-79
2023/08/25 07:32:37;;;;;;;6.75;5.28;;;21.80;99.90;;;;;;4974775;28;20054;-77
2023/08/25 07:35:04;;;;;;;12.10;6.20;;;21.80;99.90;;;;;;4976910;28;20419;-77
2023/08/25 07:37:31;;;;;;;7.13;5.00;;;21.80;99.90;;;;;;4979008;28;20617;-77
2023/08/25 07:39:58;;;;;;;11.68;4.97;;;21.80;99.90;;;;;;4977020;28;20404;-79
2023/08/25 07:42:26;;;;;;;8.90;5.13;;;21.90;99.90;;;;;;4981012;28;20047;-79
2023/08/25 07:44:53;;;;;;;9.10;4.68;;;21.90;99.90;;;;;;4975505;28;20105;-77
2023/08/25 07:47:20;;;;;;;12.90;5.40;;;21.90;99.90;;;;;;4975892;28;20109;-78
2023/08/25 07:49:47;;;;;;;11.07;5.35;;;21.90;99.90;;;;;;4977459;28;20054;-77
2023/08/25 07:52:13;;;;;;;9.35;5.72;;;21.90;99.90;;;;;;4980617;28;20042;-77
2023/08/25 07:54:41;;;;;;;9.90;5.20;;;21.90;99.90;;;;;;4977387;28;20101;-78
2023/08/25 07:57:07;;;;;;;9.23;4.22;;;22.00;99.90;;;;;;4979233;28;20535;-77
2023/08/25 07:59:34;;;;;;;12.82;4.40;;;22.10;99.90;;;;;;4976440;28;20101;-77
2023/08/25 08:02:02;;;;;;;10.80;4.78;;;22.00;99.90;;;;;;4977012;28;20064;-78
2023/08/25 08:04:31;;;;;;;7.68;4.53;;;22.00;99.90;;;;;;4977772;28;20042;-78
2023/08/25 08:07:00;;;;;;;7.25;4.80;;;22.20;99.90;;;;;;4980336;28;20502;-78
2023/08/25 08:09:27;;;;;;;10.15;4.93;;;22.30;99.90;;;;;;4977796;28;20061;-78
2023/08/25 08:11:54;;;;;;;7.95;4.80;;;22.30;99.90;;;;;;4978410;28;20058;-78
2023/08/25 08:14:20;;;;;;;6.15;4.82;;;22.30;99.90;;;;;;4974684;28;20057;-77
2023/08/25 08:17:02;;;;;;;5.32;4.07;;;22.40;99.90;;;;;;4977077;28;20093;-78
2023/08/25 08:19:29;;;;;;;14.18;4.95;;;22.40;99.90;;;;;;4960519;28;20038;-78
2023/08/25 08:21:57;;;;;;;4.93;4.40;;;22.40;99.90;;;;;;4963441;28;20109;-79
2023/08/25 08:24:24;;;;;;;6.65;4.13;;;22.30;99.90;;;;;;4977743;28;20046;-78
2023/08/25 08:27:10;;;;;;;7.82;4.40;;;22.40;99.90;;;;;;4978658;28;20080;-78
2023/08/25 08:29:37;;;;;;;7.80;4.60;;;22.40;99.90;;;;;;4976191;28;20475;-78
2023/08/25 08:32:04;;;;;;;12.50;5.50;;;22.40;99.90;;;;;;4982590;28;20043;-78
2023/08/25 08:34:31;;;;;;;7.72;4.88;;;22.60;99.90;;;;;;4979585;28;20042;-79
2023/08/25 08:36:57;;;;;;;6.70;4.28;;;22.70;99.90;;;;;;4980453;28;20050;-79
2023/08/25 08:39:24;;;;;;;8.18;4.68;;;22.70;99.90;;;;;;4978324;28;20050;-79
2023/08/25 08:41:52;;;;;;;7.82;4.30;;;22.80;99.90;;;;;;4976685;28;20078;-77
2023/08/25 08:44:21;;;;;;;7.50;3.97;;;22.80;99.90;;;;;;4978726;28;20422;-78
2023/08/25 08:46:49;;;;;;;7.03;4.20;;;22.70;99.90;;;;;;4976382;28;20051;-78
2023/08/25 08:49:17;;;;;;;10.25;5.28;;;22.80;99.90;;;;;;4977504;28;20118;-78
2023/08/25 08:51:45;;;;;;;5.80;3.97;;;22.80;99.90;;;;;;4979348;28;20058;-78
2023/08/25 08:54:11;;;;;;;8.52;4.50;;;22.80;99.90;;;;;;4977919;28;20105;-78
2023/08/25 08:56:39;;;;;;;6.97;4.32;;;22.90;99.90;;;;;;4972982;28;20043;-78
2023/08/25 08:59:06;;;;;;;4.80;4.32;;;22.90;99.90;;;;;;4977031;28;20053;-80
2023/08/25 09:01:33;;;;;;;8.77;4.78;;;22.80;99.90;;;;;;4981755;28;20054;-79
2023/08/25 09:04:02;;;;;;;6.65;4.13;;;22.80;99.90;;;;;;4962243;28;20051;-78
2023/08/25 09:06:33;;;;;;;6.10;4.23;;;22.80;99.90;;;;;;4979681;28;20121;-78
2023/08/25 09:09:04;;;;;;;6.43;4.53;;;22.80;99.90;;;;;;4977950;28;20513;-79
2023/08/25 09:11:32;;;;;;;8.35;4.47;;;22.90;99.90;;;;;;4978443;28;20039;-78
2023/08/25 09:14:04;;;;;;;7.65;4.22;;;22.80;99.90;;;;;;4979744;28;20042;-79
2023/08/25 09:16:33;;;;;;;6.78;5.03;;;22.80;99.90;;;;;;4980978;28;20427;-78
2023/08/25 09:19:04;;;;;;;7.15;4.65;;;22.70;99.90;;;;;;4976182;28;20047;-78
2023/08/25 09:21:31;;;;;;;7.47;4.65;;;22.80;99.90;;;;;;4981168;28;20077;-79
2023/08/25 09:24:00;;;;;;;7.28;4.20;;;23.00;99.90;;;;;;4977257;28;20079;-79
2023/08/25 09:26:35;;;;;;;6.75;4.40;;;22.90;99.90;;;;;;4976219;28;20055;-78
2023/08/25 09:29:01;;;;;;;7.55;5.32;;;22.90;99.90;;;;;;4980543;28;20113;-79
2023/08/25 09:31:29;;;;;;;4.90;3.72;;;23.10;99.90;;;;;;4976015;28;20070;-79
2023/08/25 09:34:02;;;;;;;7.57;3.25;;;23.30;99.90;;;;;;4978676;28;20446;-78
2023/08/25 09:36:29;;;;;;;5.03;3.60;;;23.30;99.90;;;;;;4979634;28;20047;-79
2023/08/25 09:38:57;;;;;;;4.38;3.65;;;23.30;99.90;;;;;;4980351;28;20533;-78
2023/08/25 09:41:29;;;;;;;4.22;3.45;;;23.30;99.90;;;;;;4980041;28;20059;-79
2023/08/25 09:44:00;;;;;;;3.92;3.50;;;23.50;99.90;;;;;;4980068;28;20053;-79
2023/08/25 09:46:32;;;;;;;8.77;3.70;;;23.50;99.90;;;;;;4979195;28;20055;-78
2023/08/25 09:49:10;;;;;;;5.88;3.88;;;23.50;99.90;;;;;;4979938;28;20051;-79
2023/08/25 09:51:42;;;;;;;7.38;4.07;;;23.70;99.90;;;;;;4979848;28;20062;-79
2023/08/25 09:54:15;;;;;;;7.30;3.42;;;23.70;99.90;;;;;;4979427;28;20562;-79
2023/08/25 09:56:46;;;;;;;7.70;4.00;;;23.80;99.90;;;;;;4979380;28;20055;-79
2023/08/25 09:59:15;;;;;;;5.63;3.38;;;23.70;99.90;;;;;;4978330;28;20054;-79
2023/08/25 10:01:43;;;;;;;5.00;3.40;;;23.80;99.90;;;;;;4979682;28;20047;-79
2023/08/25 10:04:11;;;;;;;7.10;3.40;;;23.90;99.90;;;;;;4979710;28;20078;-79
2023/08/25 10:06:39;;;;;;;9.05;4.28;;;23.90;99.90;;;;;;4979765;28;20078;-79
2023/08/25 10:09:07;;;;;;;5.38;2.88;;;24.10;99.90;;;;;;4980532;28;20054;-80
2023/08/25 10:11:40;;;;;;;5.50;3.05;;;24.10;99.90;;;;;;4979546;28;20517;-79
2023/08/25 10:14:10;;;;;;;5.03;3.17;;;23.90;99.90;;;;;;4959812;28;20051;-79
2023/08/25 10:16:38;;;;;;;;;;;23.80;99.90;;;;;;4980894;28;20055;-80
2023/08/25 10:19:07;;;;;;;5.05;3.17;;;23.70;99.90;;;;;;4980451;28;19922;-78
2023/08/25 10:21:35;;;;;;;4.53;2.78;;;23.90;99.90;;;;;;4983456;28;20054;-80
2023/08/25 10:24:04;;;;;;;3.13;2.50;;;23.80;99.90;;;;;;4978445;28;20134;-78
2023/08/25 10:26:31;;;;;;;3.33;2.60;;;23.80;99.90;;;;;;4980633;28;20062;-79
2023/08/25 10:28:58;;;;;;;3.60;2.65;;;23.90;99.90;;;;;;4978987;28;20517;-79
2023/08/25 10:31:25;;;;;;;4.43;2.90;;;24.00;99.90;;;;;;4978911;28;20054;-81
2023/08/25 10:33:53;;;;;;;10.32;2.80;;;23.90;99.90;;;;;;4979158;28;20123;-78
2023/08/25 10:36:21;;;;;;;2.83;2.53;;;24.00;99.90;;;;;;4977430;28;20055;-78
2023/08/25 10:38:54;;;;;;;3.90;2.50;;;24.10;99.90;;;;;;4978395;28;20043;-79
2023/08/25 10:41:23;;;;;;;4.53;2.40;;;24.10;99.90;;;;;;4975513;28;20093;-79
2023/08/25 10:43:54;;;;;;;3.22;2.30;;;24.40;99.90;;;;;;4977808;28;20077;-79
2023/08/25 10:46:24;;;;;;;4.38;2.58;;;24.40;99.90;;;;;;4974711;28;20129;-79
2023/08/25 10:49:12;;;;;;;3.75;2.22;;;24.60;99.90;;;;;;4976406;28;20051;-81
2023/08/25 10:51:39;;;;;;;4.13;2.55;;;24.40;99.90;;;;;;4979062;28;20129;-79
2023/08/25 10:54:18;;;;;;;4.72;2.67;;;24.60;99.90;;;;;;4978708;28;20105;-79
2023/08/25 10:56:51;;;;;;;3.75;2.47;;;24.60;99.90;;;;;;4974515;28;20129;-79
2023/08/25 10:59:20;;;;;;;4.18;2.17;;;24.70;99.90;;;;;;4961265;28;20101;-79
2023/08/25 11:01:55;;;;;;;5.70;3.00;;;24.50;99.90;;;;;;4958776;28;20105;-79
2023/08/25 11:04:24;;;;;;;3.35;2.45;;;24.10;99.90;;;;;;4977532;28;20058;-79
2023/08/25 11:06:53;;;;;;;4.53;2.60;;;24.50;99.90;;;;;;4978687;28;20050;-78
2023/08/25 11:09:26;;;;;;;6.53;2.50;;;24.70;99.90;;;;;;4977994;28;20046;-79
2023/08/25 11:12:00;;;;;;;4.18;2.30;;;24.80;99.90;;;;;;4976148;28;20069;-80
2023/08/25 11:14:31;;;;;;;4.07;2.00;;;24.70;99.90;;;;;;4977540;28;20047;-79
2023/08/25 11:17:00;;;;;;;5.60;2.55;;;24.90;99.90;;;;;;4976675;28;20054;-78
2023/08/25 11:19:28;;;;;;;4.47;2.25;;;24.80;99.90;;;;;;4977254;28;20050;-79
2023/08/25 11:22:01;;;;;;;2.95;2.45;;;25.20;99.90;;;;;;4978681;28;20506;-79
2023/08/25 11:24:31;;;;;;;2.78;2.25;;;25.50;99.90;;;;;;4978109;28;20088;-79
2023/08/25 11:27:06;;;;;;;4.03;2.30;;;25.60;99.90;;;;;;4978263;28;20138;-79
2023/08/25 11:29:33;;;;;;;4.13;2.30;;;25.60;99.90;;;;;;4975523;28;20457;-79
2023/08/25 11:32:02;;;;;;;4.13;2.20;;;25.70;99.90;;;;;;4977025;28;20059;-79
2023/08/25 11:34:30;;;;;;;3.67;2.17;;;25.80;99.90;;;;;;4977843;28;20051;-78
2023/08/25 11:36:57;;;;;;;3.05;2.40;;;25.80;99.90;;;;;;4978421;28;20137;-79
2023/08/25 11:39:24;;;;;;;2.85;2.20;;;25.80;99.90;;;;;;4977867;28;20090;-79
2023/08/25 11:41:55;;;;;;;3.13;1.90;;;25.80;99.90;;;;;;4977666;28;20051;-79
2023/08/25 11:44:23;;;;;;;3.20;1.95;;;25.90;99.90;;;;;;4976253;28;20050;-79
2023/08/25 11:46:53;;;;;;;4.45;2.47;;;26.00;99.90;;;;;;4978627;28;20062;-79
2023/08/25 11:49:27;;;;;;;3.88;2.10;;;26.10;99.90;;;;;;4977729;28;20081;-79
2023/08/25 11:51:54;;;;;;;4.95;1.98;;;26.20;99.90;;;;;;4977453;28;20047;-79
2023/08/25 11:54:21;;;;;;;3.13;2.33;;;26.30;99.90;;;;;;4979300;28;20066;-79
2023/08/25 11:56:50;;;;;;;5.20;2.30;;;26.50;99.90;;;;;;4978614;28;20050;-79
2023/08/25 11:59:20;;;;;;;5.97;2.10;;;26.60;99.90;;;;;;4977310;28;20129;-79
2023/08/25 12:01:50;;;;;;;3.55;1.90;;;26.70;99.90;;;;;;4977309;28;20047;-79
2023/08/25 12:04:25;;;;;;;2.10;1.80;;;26.80;99.90;;;;;;4975844;28;20046;-79
2023/08/25 12:06:53;;;;;;;2.70;1.60;;;26.90;99.90;;;;;;4974432;28;20089;-80
2023/08/25 12:09:22;;;;;;;4.88;1.80;;;27.00;99.90;;;;;;4976107;28;20049;-79
2023/08/25 12:11:50;;;;;;;5.60;1.90;;;27.10;99.90;;;;;;4972815;28;20470;-79
2023/08/25 12:14:27;;;;;;;4.05;2.00;;;27.20;99.90;;;;;;4974995;28;20499;-78
2023/08/25 12:16:55;;;;;;;3.80;1.70;;;27.30;99.90;;;;;;4972859;28;20499;-79
2023/08/25 12:19:26;;;;;;;2.50;2.00;;;27.40;99.90;;;;;;4976455;28;20062;-79
2023/08/25 12:21:55;;;;;;;4.18;2.70;;;27.50;99.90;;;;;;4975996;28;20043;-78
2023/08/25 12:24:22;;;;;;;2.38;1.75;;;27.60;99.90;;;;;;4972418;28;20051;-78
2023/08/25 12:26:48;;;;;;;2.72;1.92;;;27.70;99.90;;;;;;4975059;28;20053;-77
2023/08/25 12:29:15;;;;;;;2.55;1.70;;;27.80;99.90;;;;;;4976860;28;20399;-78
2023/08/25 12:31:42;;;;;;;3.60;2.00;;;27.80;99.90;;;;;;4976235;28;20054;-78
2023/08/25 12:34:09;;;;;;;3.30;1.83;;;27.80;99.90;;;;;;4975813;28;20085;-78
2023/08/25 12:36:36;;;;;;;2.70;1.92;;;27.90;99.90;;;;;;4975548;28;20059;-78
2023/08/25 12:39:03;;;;;;;2.95;1.80;;;27.90;99.90;;;;;;4975071;28;20105;-78
2023/08/25 12:41:30;;;;;;;2.15;1.90;;;28.00;99.90;;;;;;4976732;28;20053;-77
2023/08/25 12:43:58;;;;;;;3.88;1.90;;;28.00;99.90;;;;;;4958537;28;20054;-78
2023/08/25 12:46:25;;;;;;;1.65;1.50;;;28.00;99.90;;;;;;4976591;28;20426;-77
2023/08/25 12:48:52;;;;;;;3.30;1.77;;;28.10;99.90;;;;;;4974656;28;20051;-78
2023/08/25 12:51:19;;;;;;;2.50;1.90;;;28.20;99.90;;;;;;4972257;28;20051;-78
2023/08/25 12:53:46;;;;;;;3.13;2.13;;;28.10;99.90;;;;;;4975376;28;20050;-77
2023/08/25 12:56:13;;;;;;;4.40;1.70;;;28.20;99.90;;;;;;4976243;28;20055;-78